Terminal Aerodrome Forecast
Issued by NWS Topeka, KS

Home | Current Version | Previous Version | Graphics & Text | Print | Product List | Glossary On
Versions: 1 2 3 4 5 6 7 8 9 10 11 12 13 14 15 16 17 18
000
FTUS43 KTOP 201700
TAFTOP
TAF
KTOP 201723Z 2018/2118 19014G21KT P6SM VCSH SCT080 BKN200
     FM202300 18010KT P6SM -SHRA VCTS SCT050CB BKN140
     FM210600 23006KT P6SM -SHRA VCTS BKN040CB
     FM211400 30008KT P6SM -SHRA SCT020 BKN035=

USA.gov is the U.S. government's official web portal to all federal, state and local government web resources and services.